Terminal Aerodrome Forecast
Issued by NWS

Home | Current Version | Previous Version | Text Only | Print | Product List | Glossary Off
Versions: 1 2 3 4 5 6 7 8 9 10 11 12 13 14 15 16

923
FTUS42 KMHX 221123
TAFOAJ
TAF
KOAJ 221123Z 2212/2312 22005KT P6SM FEW250
     FM221700 22010G15KT P6SM SCT050
     FM230000 20005KT P6SM FEW250
      AMD LTD TO CLD VIS AND WIND=

USA.gov is the U.S. government's official web portal to all federal, state and local government web resources and services.